createdAt,value
2018-12-05T00:02:55.746Z,90.76
2018-12-05T00:07:50.304Z,91.22
2018-12-05T00:12:44.955Z,91.63
2018-12-05T00:17:39.460Z,92.02
2018-12-05T00:38:48.353Z,94.17
2018-12-05T00:43:42.919Z,93.61
2018-12-05T00:48:37.497Z,93.29
2018-12-05T00:53:32.128Z,92.78
2018-12-05T00:58:26.616Z,92.45
2018-12-05T01:14:10.886Z,91.53
2018-12-05T01:19:05.674Z,90.04
2018-12-05T01:24:00.154Z,89.61
2018-12-05T01:28:54.838Z,89.39
2018-12-05T01:33:49.674Z,89.59
2018-12-05T01:54:58.439Z,89.93
2018-12-05T01:59:53.002Z,90.73
2018-12-05T02:04:47.635Z,91.38
2018-12-05T02:09:42.204Z,91.85
2018-12-05T02:14:36.793Z,91.88
2018-12-05T02:35:45.947Z,91.05
2018-12-05T02:40:40.575Z,90.62
2018-12-05T02:45:35.693Z,91.11
2018-12-05T02:50:30.160Z,91.12
2018-12-05T02:55:24.682Z,90.47
2018-12-05T03:11:08.872Z,90.71
2018-12-05T03:16:03.380Z,90.31
2018-12-05T03:20:57.885Z,90.66
2018-12-05T03:25:52.357Z,90.41
2018-12-05T03:47:00.860Z,91.77
2018-12-05T03:51:55.350Z,91.56
2018-12-05T03:56:49.833Z,91.97
2018-12-05T04:01:44.377Z,92.01
2018-12-05T04:06:38.907Z,91.48
2018-12-05T04:27:48.471Z,91.87
2018-12-05T04:32:43.027Z,91.29
2018-12-05T04:37:37.533Z,92.31
2018-12-05T04:42:32.112Z,92.44
2018-12-05T04:47:26.612Z,92.02
2018-12-05T05:03:11.175Z,92.33
2018-12-05T05:08:05.660Z,92.33
2018-12-05T05:13:00.139Z,92.42
2018-12-05T05:17:54.672Z,92.96
2018-12-05T05:39:03.162Z,91.37
2018-12-05T05:43:57.719Z,91.08
2018-12-05T05:48:52.236Z,91.10
2018-12-05T05:53:46.895Z,90.88
2018-12-05T05:58:41.367Z,91.03
2018-12-05T06:03:35.827Z,90.63
2018-12-05T06:08:30.483Z,90.51
2018-12-05T06:13:25.028Z,90.78
2018-12-05T06:18:19.626Z,91.21
2018-12-05T06:39:29.864Z,90.43
2018-12-05T06:44:59.446Z,90.87
2018-12-05T06:49:52.808Z,90.88
2018-12-05T06:54:46.112Z,90.54
2018-12-05T07:15:53.318Z,89.65
2018-12-05T07:20:46.661Z,89.80
2018-12-05T07:25:39.952Z,90.00
2018-12-05T07:30:33.233Z,89.45
2018-12-05T07:35:26.541Z,89.35
2018-12-05T07:40:19.858Z,89.05
2018-12-05T07:45:13.479Z,89.44
2018-12-05T07:50:12.305Z,89.70
2018-12-05T07:55:10.586Z,89.30
2018-12-05T08:00:06.573Z,89.04
2018-12-05T08:21:14.524Z,88.47
2018-12-05T08:26:12.414Z,88.93
2018-12-05T08:31:11.529Z,90.81
2018-12-05T08:36:08.525Z,87.36
2018-12-05T08:41:07.524Z,86.49
2018-12-05T08:46:03.861Z,86.78
2018-12-05T08:50:58.394Z,85.28
2018-12-05T08:55:51.682Z,86.42
2018-12-05T09:00:45.056Z,86.02
2018-12-05T09:21:52.735Z,85.10
2018-12-05T09:26:47.289Z,84.76
2018-12-05T09:31:41.321Z,84.85
2018-12-05T09:36:34.834Z,83.81
2018-12-05T09:41:31.199Z,83.33
2018-12-05T09:46:26.271Z,81.81
2018-12-05T09:51:19.676Z,80.34
2018-12-05T09:56:13.333Z,80.18
2018-12-05T10:17:20.881Z,79.92
2018-12-05T10:22:14.147Z,79.55
2018-12-05T10:27:07.566Z,79.07
2018-12-05T10:32:01.268Z,79.95
2018-12-05T10:36:54.812Z,82.47
2018-12-05T10:41:48.222Z,83.57
2018-12-05T10:46:41.632Z,83.11
2018-12-05T10:51:35.284Z,85.48
2018-12-05T10:56:28.734Z,85.32
2018-12-05T11:17:43.801Z,83.01
2018-12-05T11:22:42.535Z,82.73
2018-12-05T11:27:35.799Z,82.56
2018-12-05T11:32:29.114Z,81.55
2018-12-05T11:37:22.556Z,80.35
2018-12-05T11:42:16.770Z,79.82
2018-12-05T11:47:10.293Z,79.88
2018-12-05T11:52:03.727Z,79.77
2018-12-05T11:56:57.061Z,79.48
2018-12-05T12:18:04.753Z,77.81
2018-12-05T12:22:58.317Z,78.33
2018-12-05T12:27:55.990Z,75.33
2018-12-05T12:33:02.813Z,75.32
2018-12-05T12:37:56.564Z,75.46
2018-12-05T12:42:49.905Z,76.27
2018-12-05T12:47:43.521Z,76.53
2018-12-05T12:52:36.913Z,75.46
2018-12-05T12:57:30.221Z,75.20
2018-12-05T13:18:37.920Z,74.77
2018-12-05T13:23:31.629Z,75.39
2018-12-05T13:28:25.220Z,75.32
2018-12-05T13:33:18.954Z,76.00
2018-12-05T13:38:12.734Z,78.38
2018-12-05T13:43:06.507Z,79.01
2018-12-05T13:47:59.842Z,78.87
2018-12-05T13:52:53.191Z,78.61
2018-12-05T13:57:47.232Z,79.21
2018-12-05T14:18:54.722Z,78.82
2018-12-05T14:23:48.230Z,77.70
2018-12-05T14:28:41.635Z,78.48
2018-12-05T14:33:38.033Z,78.81
2018-12-05T14:38:31.477Z,78.27
2018-12-05T14:43:24.844Z,78.37
2018-12-05T14:48:18.505Z,79.05
2018-12-05T14:53:11.780Z,80.00
2018-12-05T14:58:05.206Z,80.03
2018-12-05T15:19:12.934Z,83.51
2018-12-05T15:24:06.437Z,83.30
2018-12-05T15:28:59.776Z,83.42
2018-12-05T15:33:53.108Z,83.49
2018-12-05T15:38:46.513Z,83.06
2018-12-05T15:43:39.877Z,83.76
2018-12-05T15:48:33.149Z,83.88
2018-12-05T15:53:26.539Z,83.25
2018-12-05T15:58:19.855Z,83.57
2018-12-05T16:19:26.662Z,83.39
2018-12-05T16:24:19.958Z,84.06
2018-12-05T16:29:13.302Z,84.21
2018-12-05T16:34:06.748Z,84.15
2018-12-05T16:39:00.086Z,84.52
2018-12-05T16:43:53.385Z,84.42
2018-12-05T16:48:46.670Z,84.02
2018-12-05T16:53:39.945Z,83.93
2018-12-05T16:58:33.263Z,84.98
2018-12-05T17:19:41.589Z,85.90
2018-12-05T17:24:34.871Z,86.55
2018-12-05T17:29:28.148Z,86.77
2018-12-05T17:34:21.423Z,86.05
2018-12-05T17:39:14.702Z,86.71
2018-12-05T17:44:08.035Z,86.80
2018-12-05T17:49:01.407Z,86.67
2018-12-05T17:53:54.667Z,86.61
2018-12-05T17:58:47.953Z,86.72
2018-12-05T18:19:55.057Z,87.58
2018-12-05T18:24:48.379Z,87.72
2018-12-05T18:29:41.651Z,87.95
2018-12-05T18:34:34.949Z,87.44
2018-12-05T18:39:28.237Z,88.54
2018-12-05T18:44:21.605Z,88.33
2018-12-05T18:49:14.923Z,88.61
2018-12-05T18:54:08.657Z,88.79
2018-12-05T18:59:02.391Z,88.90
2018-12-05T19:20:10.291Z,88.25
2018-12-05T19:25:04.248Z,88.52
2018-12-05T19:29:57.528Z,89.58
2018-12-05T19:34:50.804Z,89.52
2018-12-05T19:39:44.116Z,89.61
2018-12-05T19:44:37.391Z,89.87
2018-12-05T19:49:30.680Z,89.61
2018-12-05T19:54:23.980Z,90.09
2018-12-05T19:59:17.268Z,90.57
2018-12-05T20:20:24.517Z,89.20
2018-12-05T20:25:17.827Z,89.75
2018-12-05T20:30:11.092Z,88.82
2018-12-05T20:35:04.587Z,89.97
2018-12-05T20:39:57.975Z,90.64
2018-12-05T20:44:51.259Z,90.99
2018-12-05T20:49:44.543Z,90.98
2018-12-05T20:54:37.796Z,90.65
2018-12-05T20:59:31.070Z,90.36
2018-12-05T21:20:38.816Z,89.33
2018-12-05T21:25:32.096Z,89.18
2018-12-05T21:30:25.383Z,89.07
2018-12-05T21:35:18.677Z,88.98
2018-12-05T21:40:11.951Z,89.14
2018-12-05T21:45:05.635Z,89.14
2018-12-05T21:49:59.014Z,88.85
2018-12-05T21:54:52.322Z,88.98
2018-12-05T21:59:45.638Z,88.90
2018-12-05T22:20:53.110Z,87.84
2018-12-05T22:25:46.386Z,87.77
2018-12-05T22:30:39.800Z,87.81
2018-12-05T22:35:33.063Z,87.61
2018-12-05T22:40:26.387Z,87.77
2018-12-05T22:45:19.671Z,87.89
2018-12-05T22:50:12.951Z,88.01
2018-12-05T22:55:06.447Z,88.38
2018-12-05T22:59:59.737Z,87.90
2018-12-05T23:21:07.651Z,88.11
2018-12-05T23:26:00.963Z,88.79
2018-12-05T23:30:54.238Z,89.44
2018-12-05T23:35:47.523Z,91.92
2018-12-05T23:40:40.799Z,92.14
2018-12-05T23:45:34.211Z,91.24
2018-12-05T23:50:27.546Z,91.50
2018-12-05T23:55:20.874Z,91.29
